createdAt,value
2023-01-17T00:01:22.991Z,46.95
2023-01-17T00:03:50.031Z,48.70
2023-01-17T00:06:16.899Z,66.53
2023-01-17T00:08:44.031Z,46.50
2023-01-17T00:11:11.296Z,51.63
2023-01-17T00:13:38.336Z,42.55
2023-01-17T00:16:05.471Z,56.37
2023-01-17T00:18:32.393Z,62.38
2023-01-17T00:20:59.294Z,47.83
2023-01-17T00:23:26.607Z,49.17
2023-01-17T00:25:53.857Z,74.30
2023-01-17T00:28:20.743Z,84.03
2023-01-17T00:30:47.716Z,136.20
2023-01-17T00:33:14.693Z,95.13
2023-01-17T00:35:41.772Z,62.50
2023-01-17T00:38:14.159Z,43.25
2023-01-17T00:40:43.541Z,49.97
2023-01-17T00:43:14.813Z,52.08
2023-01-17T00:45:44.014Z,49.40
2023-01-17T00:48:10.903Z,52.85
2023-01-17T00:50:38.062Z,50.75
2023-01-17T00:53:05.862Z,52.87
2023-01-17T00:55:33.762Z,45.15
2023-01-17T00:58:09.584Z,45.20
2023-01-17T01:00:36.570Z,41.35
2023-01-17T01:03:09.390Z,40.92
2023-01-17T01:05:38.064Z,44.30
2023-01-17T01:08:26.001Z,47.83
2023-01-17T01:10:52.983Z,42.67
2023-01-17T01:13:24.098Z,43.53
2023-01-17T01:15:50.985Z,44.22
2023-01-17T01:18:18.065Z,31.93
2023-01-17T01:20:44.890Z,33.97
2023-01-17T01:23:11.880Z,36.83
2023-01-17T01:25:38.711Z,35.80
2023-01-17T01:28:09.991Z,40.45
2023-01-17T01:30:36.912Z,43.13
2023-01-17T01:33:12.049Z,33.03
2023-01-17T01:35:38.876Z,46.78
2023-01-17T01:38:05.920Z,50.38
2023-01-17T01:40:32.868Z,51.45
2023-01-17T01:43:01.854Z,43.97
2023-01-17T01:45:31.027Z,43.60
2023-01-17T01:48:27.181Z,46.20
2023-01-17T01:50:54.228Z,53.20
2023-01-17T01:53:21.947Z,56.38
2023-01-17T01:55:51.122Z,51.40
2023-01-17T01:58:28.905Z,46.15
2023-01-17T02:00:55.991Z,53.70
2023-01-17T02:03:32.043Z,45.65
2023-01-17T02:06:07.262Z,39.47
2023-01-17T02:08:34.830Z,43.47
2023-01-17T02:11:03.311Z,50.60
2023-01-17T02:13:30.775Z,54.75
2023-01-17T02:15:57.738Z,41.47
2023-01-17T02:18:53.812Z,43.80
2023-01-17T02:21:34.411Z,44.20
2023-01-17T02:24:25.995Z,49.75
2023-01-17T02:27:48.396Z,52.85
2023-01-17T02:30:38.162Z,51.40
2023-01-17T02:33:25.263Z,41.03
2023-01-17T02:35:59.989Z,41.30
2023-01-17T02:38:56.135Z,39.30
2023-01-17T02:41:29.852Z,47.90
2023-01-17T02:43:57.194Z,44.40
2023-01-17T02:46:24.503Z,44.47
2023-01-17T02:48:52.397Z,46.63
2023-01-17T02:51:22.051Z,37.17
2023-01-17T02:54:13.848Z,46.72
2023-01-17T02:56:48.043Z,45.80
2023-01-17T02:59:36.117Z,48.35
2023-01-17T03:02:35.052Z,51.97
2023-01-17T03:05:05.052Z,50.78
2023-01-17T03:07:33.297Z,44.70
2023-01-17T03:10:02.923Z,40.70
2023-01-17T03:12:32.226Z,42.15
2023-01-17T03:14:59.292Z,47.53
2023-01-17T03:17:31.627Z,40.10
2023-01-17T03:19:59.203Z,42.03
2023-01-17T03:22:26.157Z,40.53
2023-01-17T03:24:53.042Z,40.47
2023-01-17T03:27:20.041Z,41.73
2023-01-17T03:29:46.983Z,38.40
2023-01-17T03:32:14.014Z,33.33
2023-01-17T03:34:40.978Z,38.78
2023-01-17T03:37:07.976Z,44.35
2023-01-17T03:39:34.768Z,43.17
2023-01-17T03:42:01.994Z,40.53
2023-01-17T03:44:28.929Z,35.72
2023-01-17T03:46:55.952Z,36.88
2023-01-17T03:49:22.942Z,46.42
2023-01-17T03:51:49.902Z,36.60
2023-01-17T03:54:16.921Z,38.40
2023-01-17T03:56:44.002Z,50.42
2023-01-17T03:59:13.053Z,43.17
2023-01-17T04:01:40.340Z,41.40
2023-01-17T04:04:07.464Z,45.30
2023-01-17T04:06:34.346Z,39.88
2023-01-17T04:09:01.309Z,39.45
2023-01-17T04:11:28.694Z,32.83
2023-01-17T04:13:55.666Z,33.53
2023-01-17T04:16:28.494Z,36.73
2023-01-17T04:18:55.794Z,30.20
2023-01-17T04:21:22.975Z,30.95
2023-01-17T04:23:50.380Z,39.05
2023-01-17T04:26:17.359Z,41.47
2023-01-17T04:28:44.539Z,37.20
2023-01-17T04:31:16.331Z,32.17
2023-01-17T04:33:43.497Z,40.25
2023-01-17T04:36:10.345Z,34.67
2023-01-17T04:38:37.504Z,32.10
2023-01-17T04:41:04.811Z,23.33
2023-01-17T04:43:31.710Z,31.98
2023-01-17T04:45:59.301Z,29.38
2023-01-17T04:48:26.587Z,36.63
2023-01-17T04:51:03.718Z,40.28
2023-01-17T04:53:31.167Z,36.83
2023-01-17T04:55:58.359Z,36.85
2023-01-17T04:58:25.333Z,33.90
2023-01-17T05:00:52.182Z,27.95
2023-01-17T05:03:20.551Z,28.52
2023-01-17T05:05:47.651Z,26.13
2023-01-17T05:08:15.197Z,29.00
2023-01-17T05:10:42.106Z,33.33
2023-01-17T05:13:11.098Z,31.65
2023-01-17T05:15:38.410Z,38.53
2023-01-17T05:18:05.429Z,32.37
2023-01-17T05:20:32.378Z,26.33
2023-01-17T05:22:59.404Z,34.08
2023-01-17T05:25:28.846Z,41.20
2023-01-17T05:27:56.155Z,39.30
2023-01-17T05:30:23.447Z,43.23
2023-01-17T05:32:54.902Z,37.15
2023-01-17T05:35:24.993Z,28.55
2023-01-17T05:37:53.288Z,33.95
2023-01-17T05:40:22.684Z,28.77
2023-01-17T05:42:52.198Z,35.40
2023-01-17T05:45:21.063Z,37.28
2023-01-17T05:47:50.196Z,38.40
2023-01-17T05:50:29.241Z,40.80
2023-01-17T05:53:11.389Z,44.80
2023-01-17T05:55:38.546Z,37.20
2023-01-17T05:58:06.874Z,37.20
2023-01-17T06:00:33.906Z,35.95
2023-01-17T06:03:01.389Z,38.40
2023-01-17T06:05:29.820Z,37.03
2023-01-17T06:07:57.289Z,35.43
2023-01-17T06:10:25.338Z,34.60
2023-01-17T06:13:20.627Z,40.25
2023-01-17T06:15:48.376Z,37.60
2023-01-17T06:18:17.626Z,43.15
2023-01-17T06:20:45.317Z,44.27
2023-01-17T06:23:14.286Z,69.07
2023-01-17T06:25:43.862Z,75.18
2023-01-17T06:28:12.385Z,57.33
2023-01-17T06:30:39.644Z,55.70
2023-01-17T06:33:06.664Z,62.70
2023-01-17T06:35:33.998Z,73.50
2023-01-17T06:38:00.883Z,89.25
2023-01-17T06:40:29.065Z,84.60
2023-01-17T06:43:03.261Z,81.93
2023-01-17T06:45:31.757Z,55.30
2023-01-17T06:48:00.660Z,56.42
2023-01-17T06:50:27.892Z,76.28
2023-01-17T06:53:00.541Z,75.07
2023-01-17T06:55:29.886Z,83.13
2023-01-17T06:57:58.431Z,75.93
2023-01-17T07:00:26.531Z,72.90
2023-01-17T07:02:54.055Z,78.82
2023-01-17T07:05:21.414Z,65.95
2023-01-17T07:07:48.696Z,84.80
2023-01-17T07:10:16.137Z,85.00
2023-01-17T07:12:43.074Z,71.78
2023-01-17T07:15:10.646Z,69.65
2023-01-17T07:17:37.779Z,60.45
2023-01-17T07:20:05.154Z,61.90
2023-01-17T07:22:32.153Z,57.13
2023-01-17T07:24:58.974Z,53.97
2023-01-17T07:27:26.886Z,65.90
2023-01-17T07:29:54.353Z,66.30
2023-01-17T07:32:21.474Z,69.68
2023-01-17T07:34:49.191Z,55.00
2023-01-17T07:37:16.155Z,52.67
2023-01-17T07:39:43.160Z,53.78
2023-01-17T07:42:10.035Z,49.63
2023-01-17T07:44:36.853Z,52.13
2023-01-17T07:47:03.695Z,49.77
2023-01-17T07:49:30.585Z,54.35
2023-01-17T07:51:57.499Z,55.10
2023-01-17T07:54:24.445Z,54.70
2023-01-17T07:56:51.320Z,69.18
2023-01-17T07:59:18.341Z,66.03
2023-01-17T08:01:45.532Z,68.88
2023-01-17T08:04:12.737Z,69.45
2023-01-17T08:06:43.297Z,61.50
2023-01-17T08:09:10.235Z,68.57
2023-01-17T08:11:37.240Z,64.10
2023-01-17T08:14:04.123Z,65.88
2023-01-17T08:16:30.994Z,57.90
2023-01-17T08:18:57.920Z,39.05
2023-01-17T08:21:24.963Z,34.80
2023-01-17T08:23:56.202Z,28.07
2023-01-17T08:26:23.239Z,30.13
2023-01-17T08:28:58.534Z,30.73
2023-01-17T08:31:25.449Z,24.77
2023-01-17T08:33:52.403Z,25.15
2023-01-17T08:36:19.361Z,24.87
2023-01-17T08:38:46.263Z,23.75
2023-01-17T08:41:13.155Z,24.13
2023-01-17T08:43:40.040Z,24.90
2023-01-17T08:46:06.950Z,21.90
2023-01-17T08:48:33.835Z,25.50
2023-01-17T08:51:02.324Z,27.90
2023-01-17T08:53:29.150Z,30.60
2023-01-17T08:56:00.956Z,26.52
2023-01-17T08:58:30.689Z,27.17
2023-01-17T09:01:06.128Z,29.23
2023-01-17T09:03:34.772Z,29.35
2023-01-17T09:06:07.441Z,27.40
2023-01-17T09:08:35.312Z,27.42
2023-01-17T09:11:12.616Z,23.05
2023-01-17T09:13:40.412Z,25.33
2023-01-17T09:16:08.393Z,26.02
2023-01-17T09:18:36.446Z,19.55
2023-01-17T09:21:14.752Z,20.88
2023-01-17T09:23:42.296Z,20.10
2023-01-17T09:26:28.269Z,19.73
2023-01-17T09:28:56.049Z,18.88
2023-01-17T09:31:23.904Z,20.48
2023-01-17T09:33:52.047Z,18.40
2023-01-17T09:36:19.610Z,20.20
2023-01-17T09:38:47.130Z,16.20
2023-01-17T09:41:24.977Z,16.30
2023-01-17T09:44:07.734Z,15.77
2023-01-17T09:46:41.400Z,13.93
2023-01-17T09:49:30.522Z,14.95
2023-01-17T09:51:58.023Z,15.70
2023-01-17T09:54:32.890Z,15.18
2023-01-17T09:57:13.630Z,14.63
2023-01-17T10:00:04.793Z,14.40
2023-01-17T10:03:15.768Z,13.18
2023-01-17T10:06:07.339Z,14.50
2023-01-17T10:08:34.174Z,13.55
2023-01-17T10:11:13.071Z,15.10
2023-01-17T10:13:53.954Z,16.48
2023-01-17T10:16:42.081Z,15.40
2023-01-17T10:19:31.477Z,13.90
2023-01-17T10:22:40.212Z,16.27
2023-01-17T10:25:35.638Z,19.52
2023-01-17T10:28:12.376Z,18.35
2023-01-17T10:30:43.861Z,17.35
2023-01-17T10:33:41.669Z,12.90
2023-01-17T10:36:15.953Z,16.40
2023-01-17T10:38:47.625Z,9.52
2023-01-17T10:41:29.491Z,8.55
2023-01-17T10:44:20.023Z,8.30
2023-01-17T10:47:10.924Z,11.23
2023-01-17T10:49:46.018Z,8.45
2023-01-17T10:52:19.468Z,11.48
2023-01-17T10:54:55.223Z,9.35
2023-01-17T10:57:25.207Z,8.88
2023-01-17T10:59:58.069Z,7.07
2023-01-17T11:02:30.067Z,7.90
2023-01-17T11:05:01.255Z,7.43
2023-01-17T11:07:29.752Z,8.02
2023-01-17T11:09:59.314Z,9.85
2023-01-17T11:12:45.225Z,6.60
2023-01-17T11:15:12.074Z,7.72
2023-01-17T11:17:44.769Z,7.10
2023-01-17T11:20:28.247Z,7.28
2023-01-17T11:23:18.530Z,8.77
2023-01-17T11:25:57.791Z,8.13
2023-01-17T11:28:27.797Z,8.05
2023-01-17T11:31:02.548Z,10.85
2023-01-17T11:33:44.509Z,9.60
2023-01-17T11:36:29.950Z,10.52
2023-01-17T11:38:58.186Z,10.70
2023-01-17T11:41:26.489Z,7.03
2023-01-17T11:43:58.798Z,8.23
2023-01-17T11:46:27.133Z,8.57
2023-01-17T11:48:59.201Z,6.75
2023-01-17T11:51:33.386Z,9.37
2023-01-17T11:54:18.641Z,7.72
2023-01-17T11:56:45.594Z,7.25
2023-01-17T11:59:29.735Z,6.72
2023-01-17T12:02:02.259Z,7.65
2023-01-17T12:04:43.522Z,7.20
2023-01-17T12:07:29.265Z,6.57
2023-01-17T12:10:03.509Z,6.18
2023-01-17T12:12:44.105Z,8.80
2023-01-17T12:16:07.832Z,7.40
2023-01-17T12:18:40.752Z,6.80
2023-01-17T12:21:17.638Z,7.53
2023-01-17T12:24:02.439Z,6.40
2023-01-17T12:27:09.679Z,6.05
2023-01-17T12:29:54.717Z,7.40
2023-01-17T12:32:30.661Z,9.47
2023-01-17T12:35:15.501Z,6.60
2023-01-17T12:37:52.692Z,7.22
2023-01-17T12:40:37.530Z,7.03
2023-01-17T12:43:22.304Z,7.53
2023-01-17T12:45:52.468Z,6.60
2023-01-17T12:48:22.401Z,8.93
2023-01-17T12:51:24.755Z,10.27
2023-01-17T12:54:09.705Z,10.13
2023-01-17T12:56:54.185Z,7.18
2023-01-17T12:59:48.354Z,7.00
2023-01-17T13:02:52.516Z,8.93
2023-01-17T13:05:45.218Z,9.27
2023-01-17T13:08:20.915Z,7.78
2023-01-17T13:11:02.485Z,6.82
2023-01-17T13:13:31.039Z,7.40
2023-01-17T13:16:03.139Z,7.28
2023-01-17T13:18:30.305Z,6.63
2023-01-17T13:21:29.052Z,5.82
2023-01-17T13:23:59.024Z,7.30
2023-01-17T13:26:49.062Z,6.73
2023-01-17T13:29:33.898Z,6.75
2023-01-17T13:32:28.668Z,6.93
2023-01-17T13:35:21.262Z,8.57
2023-01-17T13:38:26.216Z,8.70
2023-01-17T13:41:11.263Z,6.47
2023-01-17T13:43:41.477Z,7.47
2023-01-17T13:46:08.408Z,6.57
2023-01-17T13:48:36.867Z,9.48
2023-01-17T13:51:05.951Z,8.90
2023-01-17T13:53:35.833Z,9.20
2023-01-17T13:56:26.270Z,8.75
2023-01-17T13:59:01.768Z,8.25
2023-01-17T14:01:34.619Z,7.85
2023-01-17T14:04:04.743Z,8.88
2023-01-17T14:06:40.493Z,9.90
2023-01-17T14:09:31.566Z,9.40
2023-01-17T14:12:24.364Z,11.15
2023-01-17T14:14:54.634Z,8.18
2023-01-17T14:17:21.517Z,8.38
2023-01-17T14:19:53.357Z,6.90
2023-01-17T14:22:20.167Z,9.02
2023-01-17T14:25:03.170Z,11.32
2023-01-17T14:27:34.139Z,9.05
2023-01-17T14:30:05.777Z,11.10
2023-01-17T14:32:35.625Z,16.77
2023-01-17T14:35:03.956Z,11.70
2023-01-17T14:37:46.397Z,11.18
2023-01-17T14:40:25.121Z,11.60
2023-01-17T14:43:23.251Z,25.60
2023-01-17T14:45:57.732Z,42.77
2023-01-17T14:48:24.871Z,28.98
2023-01-17T14:50:54.000Z,22.85
2023-01-17T14:53:24.347Z,12.50
2023-01-17T14:55:53.666Z,11.18
2023-01-17T14:58:25.980Z,11.17
2023-01-17T15:00:57.935Z,12.65
2023-01-17T15:03:25.037Z,12.25
2023-01-17T15:05:54.175Z,9.57
2023-01-17T15:08:25.208Z,10.35
2023-01-17T15:11:03.612Z,9.40
2023-01-17T15:13:44.208Z,9.48
2023-01-17T15:16:25.103Z,12.40
2023-01-17T15:18:53.730Z,11.02
2023-01-17T15:21:24.945Z,10.23
2023-01-17T15:23:57.398Z,10.13
2023-01-17T15:26:27.363Z,9.68
2023-01-17T15:29:07.011Z,10.82
2023-01-17T15:31:49.634Z,10.85
2023-01-17T15:34:31.989Z,12.32
2023-01-17T15:37:07.907Z,12.30
2023-01-17T15:39:37.563Z,9.45
2023-01-17T15:42:19.002Z,9.70
2023-01-17T15:44:49.201Z,11.63
2023-01-17T15:47:34.342Z,9.45
2023-01-17T15:50:22.166Z,9.23
2023-01-17T15:52:50.555Z,9.60
2023-01-17T15:55:26.388Z,9.38
2023-01-17T15:57:53.345Z,8.57
2023-01-17T16:00:27.831Z,8.55
2023-01-17T16:02:55.420Z,8.63
2023-01-17T16:05:22.885Z,7.90
2023-01-17T16:07:52.348Z,9.05
2023-01-17T16:10:20.774Z,11.52
2023-01-17T16:12:49.718Z,9.05
2023-01-17T16:15:18.395Z,10.40
2023-01-17T16:17:48.581Z,10.00
2023-01-17T16:20:21.342Z,10.07
2023-01-17T16:22:49.735Z,11.27
2023-01-17T16:25:19.531Z,14.00
2023-01-17T16:27:47.027Z,11.93
2023-01-17T16:30:17.615Z,12.50
2023-01-17T16:32:46.312Z,10.25
2023-01-17T16:35:19.298Z,9.32
2023-01-17T16:37:53.310Z,13.82
2023-01-17T16:40:22.583Z,16.23
2023-01-17T16:42:49.442Z,15.25
2023-01-17T16:45:17.821Z,19.83
2023-01-17T16:47:46.453Z,18.40
2023-01-17T16:50:15.515Z,11.05
2023-01-17T16:52:42.812Z,13.37
2023-01-17T16:55:14.721Z,13.57
2023-01-17T16:57:41.771Z,11.98
2023-01-17T17:00:10.480Z,12.40
2023-01-17T17:02:37.557Z,13.90
2023-01-17T17:05:04.998Z,10.77
2023-01-17T17:07:32.049Z,13.20
2023-01-17T17:10:00.404Z,11.13
2023-01-17T17:12:27.331Z,10.27
2023-01-17T17:14:54.204Z,13.02
2023-01-17T17:17:21.127Z,12.27
2023-01-17T17:19:48.054Z,11.00
2023-01-17T17:22:15.021Z,11.68
2023-01-17T17:24:42.035Z,10.00
2023-01-17T17:27:08.904Z,11.38
2023-01-17T17:29:35.837Z,8.73
2023-01-17T17:32:02.728Z,9.60
2023-01-17T17:34:29.680Z,10.15
2023-01-17T17:36:56.596Z,10.13
2023-01-17T17:39:23.439Z,11.73
2023-01-17T17:41:50.311Z,9.80
2023-01-17T17:44:17.156Z,7.75
2023-01-17T17:46:44.101Z,10.23
2023-01-17T17:49:11.033Z,10.05
2023-01-17T17:51:39.934Z,7.80
2023-01-17T17:54:12.086Z,11.30
2023-01-17T17:56:40.038Z,9.73
2023-01-17T17:59:08.961Z,9.98
2023-01-17T18:01:36.262Z,7.70
2023-01-17T18:04:04.373Z,6.88
2023-01-17T18:06:31.297Z,7.80
2023-01-17T18:08:58.238Z,7.95
2023-01-17T18:11:26.943Z,8.75
2023-01-17T18:13:55.701Z,8.38
2023-01-17T18:16:26.104Z,9.38
2023-01-17T18:18:55.664Z,8.47
2023-01-17T18:21:25.510Z,12.18
2023-01-17T18:23:57.777Z,8.05
2023-01-17T18:26:29.871Z,9.00
2023-01-17T18:28:58.174Z,7.32
2023-01-17T18:31:27.671Z,9.33
2023-01-17T18:33:56.303Z,9.55
2023-01-17T18:36:24.340Z,9.60
2023-01-17T18:38:52.334Z,8.85
2023-01-17T18:41:28.458Z,9.45
2023-01-17T18:43:55.606Z,9.43
2023-01-17T18:46:23.214Z,9.57
2023-01-17T18:48:50.265Z,7.75
2023-01-17T18:51:20.363Z,7.75
2023-01-17T18:53:47.335Z,8.48
2023-01-17T18:56:20.348Z,8.17
2023-01-17T18:58:49.500Z,8.95
2023-01-17T19:01:22.064Z,27.35
2023-01-17T19:03:51.948Z,20.23
2023-01-17T19:06:22.310Z,12.57
2023-01-17T19:08:52.229Z,12.67
2023-01-17T19:11:23.693Z,13.00
2023-01-17T19:13:50.744Z,11.32
2023-01-17T19:16:21.104Z,10.35
2023-01-17T19:18:48.081Z,9.93
2023-01-17T19:21:17.399Z,9.27
2023-01-17T19:23:44.873Z,7.25
2023-01-17T19:26:13.792Z,6.55
2023-01-17T19:28:42.672Z,6.65
2023-01-17T19:31:16.673Z,7.25
2023-01-17T19:33:45.640Z,7.57
2023-01-17T19:36:18.402Z,9.13
2023-01-17T19:39:03.101Z,9.00
2023-01-17T19:41:32.039Z,7.50
2023-01-17T19:44:01.594Z,8.52
2023-01-17T19:46:29.273Z,7.97
2023-01-17T19:48:57.803Z,9.55
2023-01-17T19:51:25.560Z,9.30
2023-01-17T19:53:52.404Z,9.32
2023-01-17T19:56:22.519Z,11.02
2023-01-17T19:58:49.560Z,10.13
2023-01-17T20:01:20.013Z,8.32
2023-01-17T20:03:47.452Z,8.60
2023-01-17T20:06:20.152Z,8.63
2023-01-17T20:08:47.001Z,9.52
2023-01-17T20:11:22.722Z,10.07
2023-01-17T20:13:52.717Z,8.50
2023-01-17T20:16:23.430Z,9.60
2023-01-17T20:18:50.661Z,10.50
2023-01-17T20:21:20.606Z,12.13
2023-01-17T20:23:48.505Z,11.37
2023-01-17T20:26:17.881Z,10.50
2023-01-17T20:28:47.005Z,10.65
2023-01-17T20:31:23.111Z,11.02
2023-01-17T20:33:50.994Z,11.82
2023-01-17T20:36:20.202Z,10.07
2023-01-17T20:38:47.250Z,9.63
2023-01-17T20:41:20.830Z,9.73
2023-01-17T20:43:52.065Z,10.93
2023-01-17T20:46:20.852Z,9.23
2023-01-17T20:48:50.661Z,9.90
2023-01-17T20:51:22.031Z,9.93
2023-01-17T20:53:54.362Z,13.68
2023-01-17T20:56:21.201Z,9.82
2023-01-17T20:58:49.579Z,9.23
2023-01-17T21:01:18.992Z,10.33
2023-01-17T21:03:47.251Z,10.07
2023-01-17T21:06:14.860Z,10.20
2023-01-17T21:08:45.158Z,8.40
2023-01-17T21:11:14.313Z,9.50
2023-01-17T21:13:41.629Z,8.13
2023-01-17T21:16:10.644Z,8.65
2023-01-17T21:18:37.750Z,8.52
2023-01-17T21:21:16.724Z,10.05
2023-01-17T21:23:44.602Z,9.90
2023-01-17T21:26:16.763Z,7.70
2023-01-17T21:28:45.983Z,11.80
2023-01-17T21:31:31.102Z,11.15
2023-01-17T21:33:59.461Z,11.43
2023-01-17T21:36:31.746Z,12.98
2023-01-17T21:39:00.222Z,10.53
2023-01-17T21:41:29.869Z,9.77
2023-01-17T21:43:58.766Z,10.43
2023-01-17T21:46:26.788Z,11.50
2023-01-17T21:48:53.786Z,12.77
2023-01-17T21:51:20.761Z,10.73
2023-01-17T21:53:47.689Z,10.38
2023-01-17T21:56:14.988Z,9.98
2023-01-17T21:58:41.813Z,11.50
2023-01-17T22:01:13.394Z,10.27
2023-01-17T22:03:40.476Z,11.10
2023-01-17T22:06:07.517Z,11.70
2023-01-17T22:08:35.108Z,13.70
2023-01-17T22:11:07.398Z,12.25
2023-01-17T22:13:35.160Z,11.95
2023-01-17T22:16:04.551Z,12.60
2023-01-17T22:18:33.240Z,12.40
2023-01-17T22:21:04.566Z,11.70
2023-01-17T22:23:31.495Z,14.23
2023-01-17T22:26:06.244Z,11.52
2023-01-17T22:28:33.820Z,11.43
2023-01-17T22:31:11.160Z,10.88
2023-01-17T22:33:39.667Z,10.60
2023-01-17T22:36:07.702Z,9.07
2023-01-17T22:38:35.379Z,11.20
2023-01-17T22:41:05.355Z,12.33
2023-01-17T22:43:32.239Z,10.55
2023-01-17T22:46:00.064Z,14.43
2023-01-17T22:48:27.009Z,12.13
2023-01-17T22:50:58.311Z,10.43
2023-01-17T22:53:25.194Z,10.97
2023-01-17T22:56:02.229Z,12.43
2023-01-17T22:58:29.393Z,12.15
2023-01-17T23:01:03.704Z,11.48
2023-01-17T23:03:30.616Z,12.32
2023-01-17T23:05:57.564Z,8.77
2023-01-17T23:08:24.738Z,9.85
2023-01-17T23:10:51.622Z,8.43
2023-01-17T23:13:18.504Z,9.20
2023-01-17T23:15:45.430Z,8.18
2023-01-17T23:18:12.324Z,8.23
2023-01-17T23:20:39.293Z,6.97
2023-01-17T23:23:06.262Z,9.27
2023-01-17T23:25:33.166Z,9.25
2023-01-17T23:27:59.995Z,9.27
2023-01-17T23:30:33.410Z,8.23
2023-01-17T23:33:08.810Z,8.15
2023-01-17T23:35:41.626Z,7.93
2023-01-17T23:38:13.808Z,7.57
2023-01-17T23:40:41.359Z,6.32
2023-01-17T23:43:11.759Z,6.73
2023-01-17T23:45:39.228Z,7.13
2023-01-17T23:48:07.717Z,8.48
2023-01-17T23:50:34.776Z,6.55
2023-01-17T23:53:02.664Z,6.63
2023-01-17T23:55:29.500Z,6.83
2023-01-17T23:57:56.443Z,7.90
